NCAR-RAP Real-Time Weather Data

Output produced by METARs form (31 May 2020  13:09 UTC)
found at http://weather.rap.ucar.edu/surface/
 
RJCB 311100Z VRB02KT CAVOK 23/M01 Q1012
 
RJCC 311300Z 15005KT CAVOK 11/09 Q1014
 
RJCH 311100Z 03005KT 9999 FEW030 15/08 Q1014
 
RJCK 311100Z 17006KT 9999 FEW040 12/06 Q1013
 
RJCM 311100Z 02004KT CAVOK 18/03 Q1012
 
RJCN 310900Z 21008KT CAVOK 24/05 Q1012
 
RJEC 311100Z 06003KT 330V110 9999 FEW040 16/06 Q1014
 
RJSA 311200Z VRB01KT 9999 FEW050 SCT/// 11/07 Q1014
 
RJSC 311000Z 10007KT 9999 FEW070 23/14 Q1014
 
RJSF 311100Z 17009KT 9999 FEW020 BKN100 BKN130 18/18 Q1017
 
RJSI 311000Z 19011KT 9999 FEW050 SCT190 BKN/// 21/14 Q1015
 
RJSK 311200Z 10002KT 9999 FEW060 19/10 Q1014
 
RJSM 311300Z VRB05KT 9999 FEW050 BKN100 14/11 Q1014
 
RJSN 311200Z 28004KT 9999 FEW040 SCT110 19/17 Q1014
 
RJSR 311000Z VRB01KT 9999 FEW040 BKN/// 21/07 Q1013
 
RJSS 311200Z 16008KT 9999 FEW030 SCT150 18/14 Q1015
 
RJSY 311200Z 03003KT 9999 FEW040 SCT080 16/12 Q1014